Time;durP1;ratioP1;P1;durP2;ratioP2;P2;SDS_P1;SDS_P2;PMS_P1;PMS_P2;Temp;Humidity;BMP_temperature;BMP_pressure;BME280_temperature;BME280_humidity;BME280_pressure;Samples;Min_cycle;Max_cycle;Signal;HPM_P1;HPM_P2
2021/11/03 00:00:25;;;;;;;7.82;5.30;;;10.60;97.40;;;;;;5092272;28;20028;-61
2021/11/03 00:02:51;;;;;;;7.95;5.53;;;10.50;97.40;;;;;;5089356;28;20035;-61
2021/11/03 00:05:17;;;;;;;8.90;5.20;;;10.50;97.50;;;;;;5092107;28;20032;-61
2021/11/03 00:07:43;;;;;;;8.13;5.60;;;10.50;97.50;;;;;;5070135;28;20052;-61
2021/11/03 00:10:12;;;;;;;7.35;5.35;;;10.50;97.50;;;;;;5071154;28;20067;-60
2021/11/03 00:12:38;;;;;;;7.65;5.20;;;10.40;97.50;;;;;;5086995;28;20036;-61
2021/11/03 00:15:04;;;;;;;6.57;5.00;;;10.40;97.60;;;;;;5091646;28;20391;-61
2021/11/03 00:17:29;;;;;;;6.97;5.03;;;10.40;97.60;;;;;;5088609;28;20030;-60
2021/11/03 00:19:55;;;;;;;8.82;5.10;;;10.40;97.60;;;;;;5090103;28;20031;-61
2021/11/03 00:22:20;;;;;;;7.32;5.50;;;10.40;97.60;;;;;;5087758;28;20032;-61
2021/11/03 00:24:46;;;;;;;7.05;4.97;;;10.30;97.60;;;;;;5091453;28;20090;-60
2021/11/03 00:27:12;;;;;;;7.82;5.72;;;10.30;97.60;;;;;;5091415;28;20082;-61
2021/11/03 00:29:38;;;;;;;7.82;5.53;;;10.20;97.60;;;;;;5095973;28;20020;-61
2021/11/03 00:32:05;;;;;;;8.73;5.30;;;10.20;97.60;;;;;;5091851;28;20028;-61
2021/11/03 00:34:31;;;;;;;8.45;5.38;;;10.20;97.70;;;;;;5093552;28;20032;-61
2021/11/03 00:36:57;;;;;;;9.57;5.80;;;10.10;97.60;;;;;;5083966;28;20035;-61
2021/11/03 00:39:23;;;;;;;9.90;6.30;;;10.10;97.60;;;;;;5075000;28;20032;-60
2021/11/03 00:41:53;;;;;;;10.13;6.38;;;10.00;97.60;;;;;;5075533;28;20032;-61
2021/11/03 00:44:20;;;;;;;9.75;6.53;;;10.00;97.70;;;;;;5074916;28;20028;-61
2021/11/03 00:46:45;;;;;;;10.55;5.88;;;9.90;97.70;;;;;;5083772;28;20051;-60
2021/11/03 00:49:11;;;;;;;9.60;5.97;;;9.90;97.70;;;;;;5095419;28;20020;-61
2021/11/03 00:51:36;;;;;;;10.27;6.38;;;9.90;97.70;;;;;;5091635;28;20089;-60
2021/11/03 00:54:02;;;;;;;8.80;6.47;;;9.80;97.70;;;;;;5094721;28;20135;-60
2021/11/03 00:56:27;;;;;;;10.90;6.63;;;9.80;97.80;;;;;;5085472;28;20032;-61
2021/11/03 00:58:53;;;;;;;10.00;6.80;;;9.70;97.80;;;;;;5104917;28;20027;-61
2021/11/03 01:01:19;;;;;;;9.50;6.22;;;9.70;97.80;;;;;;5105577;28;20391;-61
2021/11/03 01:03:46;;;;;;;9.73;6.60;;;9.70;97.80;;;;;;5090536;28;20104;-61
2021/11/03 01:06:12;;;;;;;8.68;6.75;;;9.70;97.80;;;;;;5079854;28;20044;-60
2021/11/03 01:08:38;;;;;;;10.20;6.43;;;9.60;97.80;;;;;;5093405;28;20024;-60
2021/11/03 01:11:03;;;;;;;10.98;7.07;;;9.60;97.90;;;;;;5092856;28;20107;-60
2021/11/03 01:13:29;;;;;;;9.80;7.13;;;9.60;97.80;;;;;;5093918;28;20392;-61
2021/11/03 01:15:58;;;;;;;8.35;6.78;;;9.60;97.80;;;;;;5074727;28;20024;-61
2021/11/03 01:18:29;;;;;;;9.38;6.88;;;9.60;97.80;;;;;;5073031;28;20029;-60
2021/11/03 01:20:56;;;;;;;9.32;6.70;;;9.50;97.90;;;;;;5088729;28;20031;-60
2021/11/03 01:23:22;;;;;;;13.27;8.07;;;9.50;97.90;;;;;;5073747;28;20060;-61
2021/11/03 01:25:50;;;;;;;11.73;7.18;;;9.40;97.90;;;;;;5073210;28;20739;-61
2021/11/03 01:28:17;;;;;;;11.25;7.55;;;9.40;97.90;;;;;;5078491;28;20024;-61
2021/11/03 01:30:45;;;;;;;9.02;6.85;;;9.40;97.90;;;;;;5090919;28;20038;-61
2021/11/03 01:33:11;;;;;;;9.68;7.07;;;9.40;97.90;;;;;;5074673;28;20090;-61
2021/11/03 01:35:37;;;;;;;15.55;7.35;;;9.40;97.90;;;;;;5079522;28;20035;-60
2021/11/03 01:38:02;;;;;;;10.18;7.03;;;9.30;97.90;;;;;;5076585;28;20101;-61
2021/11/03 01:40:30;;;;;;;8.70;6.72;;;9.30;97.90;;;;;;5093083;28;20055;-60
2021/11/03 01:42:56;;;;;;;13.07;6.93;;;9.30;98.00;;;;;;5072506;28;20350;-60
2021/11/03 01:45:26;;;;;;;7.70;5.95;;;9.20;98.00;;;;;;5073553;28;20115;-61
2021/11/03 01:47:54;;;;;;;9.20;6.10;;;9.20;98.10;;;;;;5093327;28;20028;-61
2021/11/03 01:50:28;;;;;;;9.30;6.70;;;9.20;98.10;;;;;;5093089;28;20048;-61
2021/11/03 01:53:08;;;;;;;9.75;6.82;;;9.10;98.10;;;;;;5093428;28;20108;-61
2021/11/03 01:55:35;;;;;;;12.23;6.72;;;9.10;98.10;;;;;;5092083;28;20035;-61
2021/11/03 01:58:07;;;;;;;10.85;6.93;;;9.10;98.20;;;;;;5073406;28;20024;-61
2021/11/03 02:00:35;;;;;;;9.60;6.60;;;9.10;98.20;;;;;;5073128;28;20041;-61
2021/11/03 02:03:05;;;;;;;10.35;6.22;;;9.10;98.20;;;;;;5093649;28;20048;-61
2021/11/03 02:05:31;;;;;;;9.27;7.10;;;9.00;98.20;;;;;;5091844;28;20480;-60
2021/11/03 02:07:58;;;;;;;11.30;6.53;;;9.00;98.20;;;;;;5093009;28;20061;-61
2021/11/03 02:10:24;;;;;;;11.13;6.63;;;9.00;98.20;;;;;;5090297;28;20107;-61
2021/11/03 02:12:49;;;;;;;8.82;6.32;;;9.00;98.20;;;;;;5073819;28;20120;-61
2021/11/03 02:15:16;;;;;;;11.38;7.03;;;8.90;98.20;;;;;;5084150;28;20016;-60
2021/11/03 02:17:43;;;;;;;9.80;6.68;;;8.90;98.20;;;;;;5076737;28;20459;-61
2021/11/03 02:20:12;;;;;;;13.63;6.78;;;8.80;98.20;;;;;;5073242;28;20108;-61
2021/11/03 02:23:11;;;;;;;9.02;6.28;;;8.90;98.30;;;;;;5111628;28;20110;-60
2021/11/03 02:25:49;;;;;;;11.15;6.85;;;8.80;98.30;;;;;;5080532;28;20020;-60
2021/11/03 02:28:16;;;;;;;9.73;6.75;;;8.80;98.30;;;;;;5072983;28;20024;-60
2021/11/03 02:30:43;;;;;;;10.13;6.82;;;8.80;98.30;;;;;;5073759;28;20043;-60
2021/11/03 02:33:16;;;;;;;9.90;7.05;;;8.70;98.30;;;;;;5072562;28;20029;-61
2021/11/03 02:35:52;;;;;;;11.55;7.88;;;8.70;98.40;;;;;;5083332;28;20036;-61
2021/11/03 02:38:30;;;;;;;8.73;6.20;;;8.70;98.40;;;;;;5091800;28;20052;-61
2021/11/03 02:41:13;;;;;;;10.27;6.78;;;8.70;98.60;;;;;;5085509;28;20031;-62
2021/11/03 02:43:53;;;;;;;9.35;6.65;;;8.60;98.40;;;;;;5091083;28;20154;-61
2021/11/03 02:46:19;;;;;;;8.98;6.45;;;8.60;98.40;;;;;;5075549;28;20054;-61
2021/11/03 02:48:45;;;;;;;12.48;6.85;;;8.60;98.40;;;;;;5072575;28;20481;-61
2021/11/03 02:51:16;;;;;;;9.38;6.60;;;8.60;98.50;;;;;;5074083;28;20127;-61
2021/11/03 02:53:46;;;;;;;9.63;6.35;;;8.50;98.40;;;;;;5092313;28;20043;-61
2021/11/03 02:56:14;;;;;;;10.77;6.80;;;8.50;98.50;;;;;;5087919;28;20032;-61
2021/11/03 02:58:39;;;;;;;8.20;5.82;;;8.50;98.50;;;;;;5078950;28;20433;-61
2021/11/03 03:01:19;;;;;;;10.82;7.03;;;8.50;98.50;;;;;;5084658;28;20111;-61
2021/11/03 03:03:45;;;;;;;9.55;6.75;;;8.50;98.50;;;;;;5092532;28;20039;-61
2021/11/03 03:06:17;;;;;;;10.77;6.65;;;8.40;98.50;;;;;;5089575;28;20044;-61
2021/11/03 03:08:42;;;;;;;12.48;7.50;;;8.40;98.50;;;;;;5083097;28;20028;-61
2021/11/03 03:11:08;;;;;;;12.63;7.13;;;8.40;98.50;;;;;;5073489;28;20381;-61
2021/11/03 03:13:34;;;;;;;11.77;6.80;;;8.40;98.60;;;;;;5072059;28;20029;-61
2021/11/03 03:16:00;;;;;;;11.05;7.05;;;8.40;98.50;;;;;;5083289;28;20032;-61
2021/11/03 03:18:25;;;;;;;11.20;7.25;;;8.40;98.60;;;;;;5092675;28;20027;-61
2021/11/03 03:20:51;;;;;;;9.20;6.65;;;8.40;98.60;;;;;;5084879;28;20023;-61
2021/11/03 03:23:16;;;;;;;14.07;8.25;;;8.40;98.60;;;;;;5111025;28;20031;-61
2021/11/03 03:25:44;;;;;;;14.35;7.57;;;8.30;98.60;;;;;;5076140;28;20476;-61
2021/11/03 03:28:11;;;;;;;10.90;7.43;;;8.30;98.60;;;;;;5071881;28;20071;-61
2021/11/03 03:30:37;;;;;;;14.57;7.60;;;8.20;98.60;;;;;;5078955;28;20025;-61
2021/11/03 03:33:02;;;;;;;10.80;7.68;;;8.20;98.60;;;;;;5070390;28;20392;-61
2021/11/03 03:35:28;;;;;;;10.85;7.47;;;8.20;98.60;;;;;;5079893;28;20044;-61
2021/11/03 03:37:53;;;;;;;10.77;7.50;;;8.10;98.60;;;;;;5071942;28;20035;-61
2021/11/03 03:40:19;;;;;;;12.93;7.65;;;8.20;98.70;;;;;;5083450;28;20020;-61
2021/11/03 03:42:45;;;;;;;9.80;7.32;;;8.10;98.70;;;;;;5091516;28;20060;-61
2021/11/03 03:45:11;;;;;;;10.15;6.80;;;8.10;98.70;;;;;;5083036;28;20020;-61
2021/11/03 03:47:37;;;;;;;10.85;6.95;;;8.10;98.70;;;;;;5071798;28;20117;-61
2021/11/03 03:50:04;;;;;;;10.35;6.72;;;8.10;98.70;;;;;;5075659;28;20035;-61
2021/11/03 03:52:30;;;;;;;13.13;6.97;;;8.10;98.70;;;;;;5071760;28;20414;-61
2021/11/03 03:54:55;;;;;;;10.80;6.75;;;8.00;98.70;;;;;;5078211;28;20067;-61
2021/11/03 03:57:21;;;;;;;10.75;7.05;;;8.00;98.70;;;;;;5088764;28;20020;-60
2021/11/03 03:59:46;;;;;;;13.88;7.10;;;8.00;98.70;;;;;;5070991;28;20016;-60
2021/11/03 04:02:12;;;;;;;9.98;7.07;;;8.00;98.70;;;;;;5071053;28;20372;-60
2021/11/03 04:04:37;;;;;;;11.38;7.53;;;8.00;98.70;;;;;;5073916;28;20040;-60
2021/11/03 04:07:03;;;;;;;11.25;7.53;;;7.90;98.70;;;;;;5091434;28;20028;-61
2021/11/03 04:09:29;;;;;;;10.88;6.93;;;7.90;98.70;;;;;;5088201;28;20080;-61
2021/11/03 04:11:54;;;;;;;10.32;7.35;;;7.90;98.70;;;;;;5090470;28;20069;-61
2021/11/03 04:14:20;;;;;;;11.00;7.22;;;7.90;98.70;;;;;;5087702;28;20483;-60
2021/11/03 04:16:45;;;;;;;13.75;6.97;;;7.90;98.70;;;;;;5091001;28;20024;-61
2021/11/03 04:19:11;;;;;;;11.00;7.68;;;7.90;98.70;;;;;;5081718;28;20107;-60
2021/11/03 04:21:36;;;;;;;10.23;7.32;;;7.90;98.80;;;;;;5089941;28;20492;-61
2021/11/03 04:24:02;;;;;;;11.73;7.57;;;7.90;98.80;;;;;;5090025;28;20024;-61
2021/11/03 04:26:31;;;;;;;10.93;7.65;;;7.80;98.80;;;;;;5072007;28;20175;-61
2021/11/03 04:28:56;;;;;;;13.25;8.50;;;7.90;98.90;;;;;;5090860;28;20020;-61
2021/11/03 04:31:23;;;;;;;10.80;7.47;;;7.80;98.90;;;;;;5073671;28;20059;-60
2021/11/03 04:34:07;;;;;;;15.25;8.80;;;7.80;98.90;;;;;;5072002;28;20039;-61
2021/11/03 04:36:53;;;;;;;16.23;8.82;;;7.90;98.90;;;;;;5070951;28;20124;-61
2021/11/03 04:39:36;;;;;;;12.65;8.82;;;7.90;99.00;;;;;;5089580;28;20477;-61
2021/11/03 04:42:02;;;;;;;14.77;8.75;;;7.80;99.00;;;;;;5086128;28;20082;-61
2021/11/03 04:44:28;;;;;;;12.32;8.30;;;7.80;99.00;;;;;;5071319;28;20384;-61
2021/11/03 04:46:53;;;;;;;13.70;9.07;;;7.90;99.00;;;;;;5070972;28;20040;-60
2021/11/03 04:49:19;;;;;;;12.88;8.55;;;7.80;99.00;;;;;;5070634;28;20107;-60
2021/11/03 04:51:44;;;;;;;12.00;8.15;;;7.80;99.00;;;;;;5089635;28;20028;-60
2021/11/03 04:54:10;;;;;;;12.45;8.15;;;7.80;99.00;;;;;;5091243;28;20051;-61
2021/11/03 04:56:36;;;;;;;13.40;9.40;;;7.90;99.00;;;;;;5090004;28;20020;-60
2021/11/03 04:59:02;;;;;;;11.65;8.02;;;7.80;99.00;;;;;;5085130;28;20020;-61
2021/11/03 05:01:28;;;;;;;13.55;8.75;;;7.80;99.20;;;;;;5071218;28;20032;-61
2021/11/03 05:03:55;;;;;;;13.38;8.90;;;7.80;99.00;;;;;;5087870;28;20028;-61
2021/11/03 05:06:23;;;;;;;13.00;8.60;;;7.80;99.00;;;;;;5073077;28;20048;-61
2021/11/03 05:08:49;;;;;;;13.85;8.88;;;7.80;99.00;;;;;;5085638;28;20106;-61
2021/11/03 05:11:15;;;;;;;12.88;8.80;;;7.80;98.90;;;;;;5073620;28;20115;-61
2021/11/03 05:13:41;;;;;;;12.77;7.93;;;7.80;98.90;;;;;;5081829;28;20101;-61
2021/11/03 05:16:07;;;;;;;13.82;9.10;;;7.80;98.90;;;;;;5083700;28;20483;-61
2021/11/03 05:18:33;;;;;;;12.38;8.13;;;7.70;98.90;;;;;;5093275;28;20035;-61
2021/11/03 05:20:59;;;;;;;14.98;8.98;;;7.70;98.90;;;;;;5085313;28;20028;-61
2021/11/03 05:23:25;;;;;;;11.65;7.90;;;7.70;98.90;;;;;;5093580;28;20068;-61
2021/11/03 05:25:57;;;;;;;13.50;8.70;;;7.70;98.90;;;;;;5093541;28;20024;-61
2021/11/03 05:28:23;;;;;;;12.23;8.70;;;7.70;98.90;;;;;;5082867;28;20036;-61
2021/11/03 05:30:49;;;;;;;12.07;8.73;;;7.70;98.90;;;;;;5085586;28;20500;-62
2021/11/03 05:33:15;;;;;;;13.32;8.73;;;7.70;98.90;;;;;;5084278;28;20131;-61
2021/11/03 05:35:40;;;;;;;14.02;9.00;;;7.70;98.90;;;;;;5072868;28;20112;-61
2021/11/03 05:38:06;;;;;;;14.77;9.20;;;7.70;98.90;;;;;;5073962;28;20035;-61
2021/11/03 05:40:32;;;;;;;14.68;9.60;;;7.70;98.80;;;;;;5074076;28;20201;-61
2021/11/03 05:42:58;;;;;;;13.88;9.82;;;7.70;98.80;;;;;;5073795;28;20131;-61
2021/11/03 05:45:25;;;;;;;15.38;9.88;;;7.60;98.80;;;;;;5086188;28;20025;-61
2021/11/03 05:47:51;;;;;;;17.27;10.90;;;7.60;98.90;;;;;;5088674;28;20037;-61
2021/11/03 05:50:21;;;;;;;17.08;10.20;;;7.60;98.90;;;;;;5073821;28;20082;-61
2021/11/03 05:52:47;;;;;;;17.58;10.32;;;7.60;99.00;;;;;;5075463;28;20024;-61
2021/11/03 05:55:14;;;;;;;14.25;9.85;;;7.60;98.80;;;;;;5073344;28;20037;-61
2021/11/03 05:57:42;;;;;;;15.43;10.57;;;7.50;98.90;;;;;;5073551;28;20057;-61
2021/11/03 06:00:14;;;;;;;14.63;10.15;;;7.50;98.90;;;;;;5079549;28;20028;-61
2021/11/03 06:02:40;;;;;;;16.65;10.95;;;7.50;99.00;;;;;;5086185;28;20024;-62
2021/11/03 06:05:06;;;;;;;17.67;10.55;;;7.50;99.00;;;;;;5079411;28;20194;-61
2021/11/03 06:07:32;;;;;;;17.88;11.15;;;7.50;99.00;;;;;;5092280;28;20043;-61
2021/11/03 06:10:03;;;;;;;16.45;10.27;;;7.50;99.00;;;;;;5091456;28;20089;-61
2021/11/03 06:12:29;;;;;;;13.90;9.43;;;7.50;99.00;;;;;;5092434;28;20041;-61
2021/11/03 06:14:54;;;;;;;14.02;9.43;;;7.50;99.00;;;;;;5087518;28;20016;-61
2021/11/03 06:17:20;;;;;;;13.75;9.60;;;7.50;99.00;;;;;;5075764;28;20028;-61
2021/11/03 06:19:46;;;;;;;14.10;8.98;;;7.40;99.00;;;;;;5076581;28;20031;-61
2021/11/03 06:22:11;;;;;;;16.08;10.45;;;7.50;99.00;;;;;;5075143;28;20028;-61
2021/11/03 06:24:38;;;;;;;11.57;8.73;;;7.50;99.00;;;;;;5073256;28;20020;-60
2021/11/03 06:27:07;;;;;;;14.23;9.90;;;7.40;99.00;;;;;;5075867;28;20561;-61
2021/11/03 06:29:32;;;;;;;14.00;9.30;;;7.40;99.00;;;;;;5071401;28;20143;-61
2021/11/03 06:31:58;;;;;;;16.75;9.98;;;7.40;98.90;;;;;;5073226;28;20485;-61
2021/11/03 06:34:23;;;;;;;15.00;10.20;;;7.40;98.90;;;;;;5072839;28;20110;-61
2021/11/03 06:36:49;;;;;;;13.38;9.98;;;7.40;99.00;;;;;;5079626;28;20043;-61
2021/11/03 06:39:14;;;;;;;15.73;10.25;;;7.40;99.00;;;;;;5072723;28;20017;-61
2021/11/03 06:41:40;;;;;;;14.82;10.20;;;7.30;98.90;;;;;;5082059;28;20602;-61
2021/11/03 06:44:06;;;;;;;15.13;9.75;;;7.30;98.90;;;;;;5091251;28;20031;-60
2021/11/03 06:46:31;;;;;;;15.60;10.38;;;7.30;99.00;;;;;;5084058;28;20050;-60
2021/11/03 06:48:57;;;;;;;14.23;9.82;;;7.20;98.90;;;;;;5092849;28;20454;-60
2021/11/03 06:51:23;;;;;;;15.80;10.82;;;7.30;98.90;;;;;;5074718;28;20032;-60
2021/11/03 06:53:48;;;;;;;17.83;9.82;;;7.30;98.90;;;;;;5079621;28;20044;-60
2021/11/03 06:56:14;;;;;;;16.92;10.15;;;7.30;98.90;;;;;;5076106;28;20021;-62
2021/11/03 06:58:40;;;;;;;14.35;9.68;;;7.30;98.90;;;;;;5082553;28;20096;-62
2021/11/03 07:01:08;;;;;;;18.10;9.80;;;7.30;98.90;;;;;;5073292;28;20043;-62
2021/11/03 07:03:35;;;;;;;15.23;10.32;;;7.30;98.90;;;;;;5072167;28;20032;-62
2021/11/03 07:06:01;;;;;;;16.77;9.98;;;7.30;99.00;;;;;;5073687;28;20090;-62
2021/11/03 07:08:27;;;;;;;15.05;9.65;;;7.40;99.00;;;;;;5071788;28;20059;-63
2021/11/03 07:10:55;;;;;;;13.00;9.63;;;7.40;99.10;;;;;;5078231;28;20052;-63
2021/11/03 07:13:22;;;;;;;14.05;9.10;;;7.40;99.10;;;;;;5074408;28;20028;-63
2021/11/03 07:15:48;;;;;;;15.85;9.55;;;7.40;99.30;;;;;;5076654;28;20422;-63
2021/11/03 07:18:14;;;;;;;15.88;10.48;;;7.50;99.20;;;;;;5084522;28;20418;-63
2021/11/03 07:20:43;;;;;;;17.73;9.93;;;7.60;99.20;;;;;;5076190;28;20027;-63
2021/11/03 07:23:15;;;;;;;13.25;9.07;;;7.60;99.30;;;;;;5070449;28;20047;-64
2021/11/03 07:25:41;;;;;;;18.83;10.32;;;7.60;99.40;;;;;;5075570;28;20067;-63
2021/11/03 07:28:07;;;;;;;16.63;10.15;;;7.70;99.30;;;;;;5082103;28;20043;-63
2021/11/03 07:30:36;;;;;;;18.13;11.18;;;7.70;99.50;;;;;;5072000;28;20033;-63
2021/11/03 07:33:02;;;;;;;18.45;10.40;;;7.70;99.30;;;;;;5078964;28;20123;-64
2021/11/03 07:35:28;;;;;;;16.00;10.75;;;7.80;99.30;;;;;;5071224;28;20021;-63
2021/11/03 07:37:55;;;;;;;14.93;9.93;;;7.80;99.30;;;;;;5076407;28;20025;-63
2021/11/03 07:40:27;;;;;;;16.63;9.80;;;7.80;99.30;;;;;;5078105;28;20020;-62
2021/11/03 07:42:57;;;;;;;14.02;9.82;;;7.80;99.30;;;;;;5070743;28;20036;-62
2021/11/03 07:45:23;;;;;;;15.68;10.30;;;7.90;99.20;;;;;;5077689;28;20099;-61
2021/11/03 07:47:48;;;;;;;16.48;10.65;;;7.90;99.20;;;;;;5078872;28;20544;-62
2021/11/03 07:50:19;;;;;;;16.95;9.85;;;8.00;99.30;;;;;;5076190;28;20582;-62
2021/11/03 07:52:45;;;;;;;16.38;9.75;;;8.10;99.20;;;;;;5070320;28;20036;-62
2021/11/03 07:55:11;;;;;;;16.95;10.93;;;8.10;99.20;;;;;;5076470;28;20385;-66
2021/11/03 07:57:36;;;;;;;16.83;10.25;;;8.20;99.20;;;;;;5081911;28;20027;-63
2021/11/03 08:00:06;;;;;;;15.07;10.75;;;8.20;99.20;;;;;;5081234;28;20036;-63
2021/11/03 08:02:32;;;;;;;17.02;10.10;;;8.30;99.30;;;;;;5087264;28;20028;-63
2021/11/03 08:04:57;;;;;;;17.63;10.25;;;8.30;99.30;;;;;;5071976;28;20128;-63
2021/11/03 08:07:23;;;;;;;19.50;10.02;;;8.40;99.30;;;;;;5069721;28;20102;-63
2021/11/03 08:09:48;;;;;;;17.10;10.55;;;8.50;99.30;;;;;;5081577;28;20084;-63
2021/11/03 08:12:16;;;;;;;15.43;10.35;;;8.60;99.30;;;;;;5077861;28;20029;-62
2021/11/03 08:14:42;;;;;;;18.15;10.70;;;8.60;99.30;;;;;;5073154;28;20063;-63
2021/11/03 08:17:15;;;;;;;14.63;9.93;;;8.70;99.30;;;;;;5070461;28;20118;-63
2021/11/03 08:19:45;;;;;;;15.63;9.90;;;8.80;99.30;;;;;;5070534;28;20036;-62
2021/11/03 08:22:11;;;;;;;13.80;9.93;;;8.80;99.30;;;;;;5077517;28;20028;-63
2021/11/03 08:24:38;;;;;;;16.38;9.80;;;8.90;99.30;;;;;;5073815;28;20063;-63
2021/11/03 08:27:05;;;;;;;16.90;10.35;;;9.00;99.30;;;;;;5085686;28;20093;-63
2021/11/03 08:29:30;;;;;;;13.57;9.75;;;9.00;99.30;;;;;;5073075;28;20496;-63
2021/11/03 08:31:58;;;;;;;14.07;9.40;;;9.10;99.30;;;;;;5074491;28;20058;-63
2021/11/03 08:34:33;;;;;;;16.80;9.90;;;9.20;99.30;;;;;;5070114;28;20031;-63
2021/11/03 08:37:01;;;;;;;;;;;9.20;99.30;;;;;;5084612;28;20492;-63
2021/11/03 08:39:27;;;;;;;14.75;8.93;;;9.30;99.30;;;;;;5072388;28;19973;-63
2021/11/03 08:41:53;;;;;;;13.77;8.98;;;9.40;99.30;;;;;;5070625;28;20040;-63
2021/11/03 08:44:18;;;;;;;14.10;8.80;;;9.50;99.40;;;;;;5074139;28;20477;-64
2021/11/03 08:46:44;;;;;;;12.45;8.80;;;9.50;99.40;;;;;;5072953;28;20067;-63
2021/11/03 08:49:09;;;;;;;13.68;8.73;;;9.70;99.40;;;;;;5083076;28;20092;-63
2021/11/03 08:51:35;;;;;;;16.90;9.07;;;9.70;99.30;;;;;;5087498;28;20101;-64
2021/11/03 08:54:04;;;;;;;12.98;9.00;;;9.80;99.30;;;;;;5077328;28;20044;-64
2021/11/03 08:56:31;;;;;;;13.75;8.15;;;9.90;99.30;;;;;;5081744;28;20020;-64
2021/11/03 08:58:56;;;;;;;13.43;8.70;;;10.00;99.30;;;;;;5081664;28;20021;-64
2021/11/03 09:01:23;;;;;;;13.10;8.35;;;10.10;99.20;;;;;;5076696;28;20073;-64
2021/11/03 09:03:52;;;;;;;12.55;8.65;;;10.10;99.20;;;;;;5089049;28;20024;-63
2021/11/03 09:06:19;;;;;;;13.60;9.30;;;10.20;99.20;;;;;;5084800;28;20037;-63
2021/11/03 09:08:49;;;;;;;14.20;8.73;;;10.40;99.20;;;;;;5076154;28;20108;-64
2021/11/03 09:11:15;;;;;;;13.55;9.10;;;10.40;99.10;;;;;;5074423;28;20060;-64
2021/11/03 09:13:40;;;;;;;12.13;8.88;;;10.50;99.10;;;;;;5078948;28;20052;-64
2021/11/03 09:16:06;;;;;;;13.85;8.90;;;10.50;99.00;;;;;;5086891;28;20020;-63
2021/11/03 09:18:32;;;;;;;14.05;9.20;;;10.60;98.90;;;;;;5078877;28;20545;-63
2021/11/03 09:20:58;;;;;;;14.77;9.10;;;10.70;98.90;;;;;;5074052;28;20082;-63
2021/11/03 09:23:25;;;;;;;14.88;9.88;;;10.80;98.80;;;;;;5080272;28;20016;-64
2021/11/03 09:25:53;;;;;;;13.98;9.65;;;10.80;98.70;;;;;;5083712;28;20035;-63
2021/11/03 09:28:20;;;;;;;15.88;10.32;;;10.80;98.60;;;;;;5082580;28;20026;-64
2021/11/03 09:30:45;;;;;;;12.82;8.95;;;10.90;98.50;;;;;;5072015;28;20032;-64
2021/11/03 09:33:11;;;;;;;14.43;9.45;;;11.00;98.40;;;;;;5077933;28;20032;-63
2021/11/03 09:35:41;;;;;;;15.68;8.68;;;11.00;98.40;;;;;;5080227;28;20032;-63
2021/11/03 09:38:07;;;;;;;15.20;10.25;;;11.10;98.30;;;;;;5081521;28;20028;-64
2021/11/03 09:40:54;;;;;;;14.63;8.90;;;11.10;98.20;;;;;;5078438;28;20105;-63
2021/11/03 09:43:40;;;;;;;12.85;9.85;;;11.10;98.20;;;;;;5082229;28;20040;-63
2021/11/03 09:46:17;;;;;;;12.73;9.05;;;11.10;98.10;;;;;;5079880;28;20362;-63
2021/11/03 09:48:45;;;;;;;12.73;8.90;;;11.20;98.10;;;;;;5089435;28;20036;-62
2021/11/03 09:51:22;;;;;;;13.30;9.25;;;11.30;98.10;;;;;;5079690;28;20540;-62
2021/11/03 09:53:52;;;;;;;12.63;8.75;;;11.30;98.00;;;;;;5083448;28;20051;-61
2021/11/03 09:56:23;;;;;;;14.38;9.30;;;11.40;98.00;;;;;;5074059;28;20496;-63
2021/11/03 09:59:37;;;;;;;13.23;9.52;;;11.40;97.80;;;;;;5083662;28;20045;-62
2021/11/03 10:02:32;;;;;;;11.15;8.02;;;11.50;97.80;;;;;;5061964;28;20522;-63
2021/11/03 10:05:28;;;;;;;11.88;8.68;;;11.60;97.80;;;;;;5071990;28;20035;-63
2021/11/03 10:08:01;;;;;;;12.02;8.40;;;11.60;97.80;;;;;;5057793;28;20999;-63
2021/11/03 10:10:40;;;;;;;13.50;9.23;;;11.60;97.60;;;;;;5067219;28;20029;-63
2021/11/03 10:13:17;;;;;;;12.45;9.07;;;11.70;97.60;;;;;;5066694;28;20025;-63
2021/11/03 10:15:59;;;;;;;12.43;8.75;;;11.70;97.60;;;;;;5068929;28;20036;-63
2021/11/03 10:18:28;;;;;;;15.40;9.35;;;11.80;97.50;;;;;;5066528;28;20538;-64
2021/11/03 10:21:03;;;;;;;10.77;7.97;;;11.80;97.40;;;;;;5068623;28;20028;-62
2021/11/03 10:23:31;;;;;;;;;;;11.90;97.30;;;;;;5067404;28;20035;-62
2021/11/03 10:26:03;;;;;;;11.00;8.10;;;11.90;97.40;;;;;;5066842;28;19997;-63
2021/11/03 10:28:38;;;;;;;11.65;7.85;;;11.90;97.30;;;;;;5068203;28;20032;-60
2021/11/03 10:31:06;;;;;;;;;;;12.00;97.30;;;;;;5068772;28;20040;-62
2021/11/03 10:33:40;;;;;;;12.52;7.43;;;12.00;97.40;;;;;;5066421;28;19993;-62
2021/11/03 10:36:19;;;;;;;11.55;7.47;;;12.10;97.10;;;;;;5067504;28;20060;-62
2021/11/03 10:39:01;;;;;;;9.35;7.53;;;12.20;97.10;;;;;;5067692;28;20043;-65
2021/11/03 10:41:35;;;;;;;11.90;8.10;;;12.30;97.10;;;;;;5068405;28;20025;-63
2021/11/03 10:44:08;;;;;;;9.25;6.97;;;12.40;97.10;;;;;;5067158;28;20036;-63
2021/11/03 10:46:56;;;;;;;9.32;6.72;;;12.50;97.10;;;;;;5067182;28;20081;-62
2021/11/03 10:49:29;;;;;;;10.50;7.90;;;12.60;97.00;;;;;;5068934;28;20484;-62
2021/11/03 10:52:19;;;;;;;11.23;7.55;;;12.70;96.90;;;;;;5066030;28;20132;-63
2021/11/03 10:54:54;;;;;;;9.57;7.10;;;12.80;96.80;;;;;;5067153;28;20040;-62
2021/11/03 10:57:41;;;;;;;9.90;6.90;;;12.80;96.60;;;;;;5066528;28;20067;-63
2021/11/03 11:00:33;;;;;;;9.18;6.88;;;12.90;96.60;;;;;;5067609;28;20063;-62
2021/11/03 11:03:07;;;;;;;9.82;6.68;;;13.00;96.50;;;;;;5065528;28;20036;-63
2021/11/03 11:05:37;;;;;;;8.43;6.43;;;13.10;96.40;;;;;;5068860;28;20039;-63
2021/11/03 11:08:15;;;;;;;10.68;7.13;;;13.10;96.30;;;;;;5067917;28;20044;-63
2021/11/03 11:11:06;;;;;;;10.98;6.97;;;13.20;96.10;;;;;;5067133;28;20781;-64
2021/11/03 11:13:41;;;;;;;10.90;6.47;;;13.20;96.00;;;;;;5064691;28;20068;-63
2021/11/03 11:16:12;;;;;;;10.85;6.93;;;13.20;95.90;;;;;;5067292;28;20074;-62
2021/11/03 11:18:42;;;;;;;9.75;6.63;;;13.20;95.80;;;;;;5066549;28;20035;-63
2021/11/03 11:21:34;;;;;;;8.75;6.60;;;13.20;95.90;;;;;;5069676;28;20028;-63
2021/11/03 11:24:07;;;;;;;11.07;6.88;;;13.30;95.80;;;;;;5064338;28;20119;-63
2021/11/03 11:26:54;;;;;;;8.40;5.93;;;13.40;95.60;;;;;;5066552;28;20031;-63
2021/11/03 11:29:29;;;;;;;7.15;5.82;;;13.40;95.50;;;;;;5065709;28;20074;-63
2021/11/03 11:32:29;;;;;;;13.50;6.50;;;13.50;95.40;;;;;;5063695;28;20031;-63
2021/11/03 11:35:23;;;;;;;8.77;5.82;;;13.60;95.40;;;;;;5065965;28;20102;-62
2021/11/03 11:37:56;;;;;;;10.13;6.25;;;13.60;95.20;;;;;;5064807;28;20165;-63
2021/11/03 11:40:28;;;;;;;9.48;6.13;;;13.70;95.10;;;;;;5065964;28;20032;-63
2021/11/03 11:42:59;;;;;;;9.75;6.47;;;13.70;94.90;;;;;;5065588;28;20032;-63
2021/11/03 11:45:32;;;;;;;9.23;6.35;;;13.60;94.80;;;;;;5066261;28;20060;-63
2021/11/03 11:48:03;;;;;;;8.60;6.07;;;13.70;94.80;;;;;;5067566;28;20783;-63
2021/11/03 11:50:44;;;;;;;9.35;6.45;;;13.70;94.80;;;;;;5066312;28;20493;-63
2021/11/03 11:53:39;;;;;;;10.65;5.90;;;13.80;94.80;;;;;;5066097;28;20043;-63
2021/11/03 11:56:08;;;;;;;8.65;6.75;;;13.80;94.60;;;;;;5066495;28;20036;-62
2021/11/03 11:58:38;;;;;;;8.82;6.32;;;13.80;94.40;;;;;;5063731;28;20043;-62
2021/11/03 12:01:16;;;;;;;9.93;6.20;;;13.70;94.40;;;;;;5065337;28;20039;-62
2021/11/03 12:04:04;;;;;;;9.35;6.47;;;13.70;94.30;;;;;;5065253;28;20033;-61
2021/11/03 12:06:52;;;;;;;8.57;5.82;;;13.70;94.30;;;;;;5056222;28;20401;-62
2021/11/03 12:09:42;;;;;;;7.40;5.65;;;13.60;94.20;;;;;;5064907;28;20060;-64
2021/11/03 12:12:08;;;;;;;10.57;4.78;;;13.50;94.00;;;;;;5064894;28;20417;-64
2021/11/03 12:14:52;;;;;;;8.00;5.50;;;13.50;94.00;;;;;;5063532;28;20111;-64
2021/11/03 12:17:42;;;;;;;6.82;4.93;;;13.40;93.80;;;;;;5064479;28;20067;-64
2021/11/03 12:20:26;;;;;;;7.15;5.22;;;13.40;93.80;;;;;;5065963;28;20093;-64
2021/11/03 12:22:56;;;;;;;7.22;4.95;;;13.30;93.90;;;;;;5064931;28;20028;-64
2021/11/03 12:25:24;;;;;;;5.55;4.28;;;13.40;93.90;;;;;;5065685;28;20116;-64
2021/11/03 12:28:16;;;;;;;7.43;5.25;;;13.40;93.70;;;;;;5064690;28;20519;-63
2021/11/03 12:30:43;;;;;;;10.07;5.70;;;13.30;93.60;;;;;;5065449;28;20032;-65
2021/11/03 12:33:13;;;;;;;9.32;5.10;;;13.30;93.70;;;;;;5064733;28;20117;-63
2021/11/03 12:35:38;;;;;;;9.68;5.35;;;13.30;93.60;;;;;;5065951;28;20119;-63
2021/11/03 12:38:10;;;;;;;8.45;5.25;;;13.30;93.60;;;;;;5067709;28;20157;-63
2021/11/03 12:40:35;;;;;;;7.80;4.90;;;13.30;93.50;;;;;;5066476;28;20024;-63
2021/11/03 12:43:23;;;;;;;7.82;5.03;;;13.30;93.50;;;;;;5063634;28;20033;-63
2021/11/03 12:46:09;;;;;;;7.35;4.78;;;13.30;93.50;;;;;;5064335;28;20039;-64
2021/11/03 12:48:41;;;;;;;9.30;5.10;;;13.20;93.50;;;;;;5064771;28;20051;-63
2021/11/03 12:51:37;;;;;;;6.90;4.45;;;13.20;93.50;;;;;;5066166;28;20421;-64
2021/11/03 12:54:23;;;;;;;6.70;4.65;;;13.20;93.50;;;;;;5064206;28;20060;-63
2021/11/03 12:57:05;;;;;;;7.63;4.82;;;13.20;93.40;;;;;;5063595;28;20085;-63
2021/11/03 12:59:36;;;;;;;8.63;4.72;;;13.20;93.40;;;;;;5064928;28;20044;-64